»·PEaware :: AAL1097 KSAN-KLAS

AAL1097 :: KSAN-KLAS

FLIGHT INFORMATION

Flight Status: Arrived
Operator:
American Airlines
More flights by this operator :: More flights under this callsign
Pilot: Adam A. (5112)
Aircraft: BOEING 767-300
(B763)
More flights by this aircraft type
Origin: KSAN San Diego Intl-Lindbergh
United States
Destination: KLAS McCarran Intl
United States
More flights between these airports :: More routes between these airports
Route: + DAG KEPEC3
File this flight plan on PilotEdge
Remarks:
Altitude:
(Current/Filed)
29,000ft
Speed:
(Current/Filed)
450kts
Departed: 20-Jan-16 03:50 PM
Arrived: 20-Jan-16 04:47 PM
Distance/Time
Traveled:
225nm/0:57
Distance/Time
To Go:
Arrived

Flight Plot

Page will automatically refresh every two minutes.

Flight plan parsing failed; only flown route is shown


Map Options




Map Legend


Flown Route
Filed Route
Departure Airport
Arrival Airport
Navaid (VOR, NDB)
Fix

Horizontal Profiles

Position Reports

Time Latitude Longitude Heading Altitude Ground
Speed
20-Jan-16 15:10 32.732547 -117.206861 191 28ft 0kts
20-Jan-16 15:11 32.732547 -117.206861 191 28ft 0kts
20-Jan-16 15:12 32.732547 -117.206861 191 28ft 0kts
20-Jan-16 15:13 32.732547 -117.206861 191 28ft 0kts
20-Jan-16 15:14 32.732547 -117.206861 191 28ft 0kts
20-Jan-16 15:15 32.732547 -117.206861 191 28ft 0kts
20-Jan-16 15:16 32.732547 -117.206861 191 28ft 0kts
20-Jan-16 15:17 32.732547 -117.206861 191 28ft 0kts
20-Jan-16 15:18 32.732547 -117.206861 191 28ft 0kts
20-Jan-16 15:19 32.732547 -117.206861 191 28ft 0kts
20-Jan-16 15:20 32.732547 -117.206861 191 28ft 0kts
20-Jan-16 15:21 32.732547 -117.206861 191 28ft 0kts
20-Jan-16 15:22 32.732547 -117.206861 191 28ft 0kts
20-Jan-16 15:23 32.732547 -117.206861 191 28ft 0kts
20-Jan-16 15:24 32.732547 -117.206861 191 28ft 0kts
20-Jan-16 15:25 32.732547 -117.206861 191 28ft 0kts
20-Jan-16 15:26 32.732547 -117.206861 191 28ft 0kts
20-Jan-16 15:27 32.732547 -117.206861 191 28ft 0kts
20-Jan-16 15:28 32.732547 -117.206861 191 28ft 0kts
20-Jan-16 15:29 32.732547 -117.206861 191 28ft 0kts
20-Jan-16 15:30 32.733065 -117.206733 191 28ft 2kts
20-Jan-16 15:31 32.733782 -117.206654 149 28ft 1kts
20-Jan-16 15:32 32.734214 -117.206930 159 28ft 0kts
20-Jan-16 15:33 32.734214 -117.206930 159 28ft 0kts
20-Jan-16 15:34 32.734214 -117.206930 159 28ft 0kts
20-Jan-16 15:35 32.734214 -117.206930 159 28ft 0kts
20-Jan-16 15:36 32.734214 -117.206930 159 28ft 0kts
20-Jan-16 15:37 32.733361 -117.205883 63 28ft 8kts
20-Jan-16 15:38 32.735006 -117.205125 42 28ft 4kts
20-Jan-16 15:39 32.735437 -117.201708 105 28ft 12kts
20-Jan-16 15:40 32.734360 -117.197318 104 28ft 14kts
20-Jan-16 15:41 32.733161 -117.192305 105 28ft 16kts
20-Jan-16 15:42 32.731792 -117.186620 106 28ft 18kts
20-Jan-16 15:43 32.730250 -117.180302 106 28ft 20kts
20-Jan-16 15:44 32.730313 -117.175411 250 28ft 1kts
20-Jan-16 15:45 32.738649 -117.203531 303 1046ft 184kts
20-Jan-16 15:46 32.775233 -117.262182 305 3106ft 273kts
20-Jan-16 15:47 32.816494 -117.329163 306 6986ft 247kts
20-Jan-16 15:48 32.856947 -117.394760 306 10212ft 256kts
20-Jan-16 15:49 32.911637 -117.463090 330 13016ft 309kts
20-Jan-16 15:50 32.983613 -117.520189 311 16142ft 325kts
20-Jan-16 15:51 33.038505 -117.606608 306 19483ft 337kts
20-Jan-16 15:52 33.092664 -117.699304 308 22370ft 350kts
20-Jan-16 15:53 33.152692 -117.791356 308 24907ft 362kts
20-Jan-16 15:54 33.201509 -117.896390 294 27136ft 375kts
20-Jan-16 15:55 33.240286 -118.012192 294 29172ft 385kts
20-Jan-16 15:56 33.279346 -118.129770 294 29228ft 384kts
20-Jan-16 15:57 33.326190 -118.242333 312 29225ft 382kts
20-Jan-16 15:58 33.419239 -118.295166 351 29227ft 395kts
20-Jan-16 15:59 33.528610 -118.286228 346 29226ft 392kts
20-Jan-16 16:00 33.629440 -118.323358 339 29234ft 388kts
20-Jan-16 16:01 33.733990 -118.331912 9 29234ft 409kts
20-Jan-16 16:02 33.825118 -118.254736 42 29317ft 466kts
20-Jan-16 16:03 33.906509 -118.135804 43 29363ft 483kts
20-Jan-16 16:04 33.976498 -118.034327 43 29354ft 483kts
20-Jan-16 16:05 34.058696 -117.914993 43 29370ft 482kts
20-Jan-16 16:06 34.142205 -117.794301 44 29377ft 481kts
20-Jan-16 16:07 34.224291 -117.674507 44 29364ft 482kts
20-Jan-16 16:08 34.308000 -117.551788 44 29365ft 483kts
20-Jan-16 16:09 34.392567 -117.427362 44 29381ft 484kts
20-Jan-16 16:10 34.477235 -117.302346 44 29382ft 484kts
20-Jan-16 16:11 34.560909 -117.178366 44 29395ft 482kts
20-Jan-16 16:12 34.645246 -117.052954 44 29267ft 482kts
20-Jan-16 16:13 34.729823 -116.926738 44 29272ft 483kts
20-Jan-16 16:14 34.813672 -116.802082 44 29262ft 483kts
20-Jan-16 16:15 34.898428 -116.674882 44 29331ft 483kts
20-Jan-16 16:16 34.983323 -116.548904 39 29453ft 478kts
20-Jan-16 16:17 35.077088 -116.435070 38 28389ft 474kts
20-Jan-16 16:18 35.163082 -116.327256 37 26060ft 375kts
20-Jan-16 16:19 35.233232 -116.239746 37 24251ft 361kts
20-Jan-16 16:20 35.303004 -116.152006 37 24229ft 360kts
20-Jan-16 16:21 35.373427 -116.063162 37 22794ft 358kts
20-Jan-16 16:22 35.439283 -115.979823 37 18858ft 331kts
20-Jan-16 16:23 35.502204 -115.900152 37 16998ft 326kts
20-Jan-16 16:24 35.562077 -115.824621 38 15390ft 302kts
20-Jan-16 16:25 35.618003 -115.753454 37 14272ft 282kts
20-Jan-16 16:26 35.671790 -115.684859 37 13192ft 277kts
20-Jan-16 16:27 35.727395 -115.613796 38 13076ft 290kts
20-Jan-16 16:28 35.793950 -115.574951 0 13059ft 267kts
20-Jan-16 16:29 35.867863 -115.569550 358 13041ft 266kts
20-Jan-16 16:30 35.941482 -115.565115 1 13013ft 266kts
20-Jan-16 16:31 35.991631 -115.500442 60 12398ft 282kts
20-Jan-16 16:32 36.019515 -115.411820 60 11382ft 274kts
20-Jan-16 16:33 36.026576 -115.316302 88 10387ft 290kts
20-Jan-16 16:34 36.019569 -115.217256 91 9204ft 289kts
20-Jan-16 16:35 36.012880 -115.119704 94 8533ft 267kts
20-Jan-16 16:36 36.007467 -115.035441 90 6491ft 244kts
20-Jan-16 16:37 36.010523 -114.965062 37 5077ft 178kts
20-Jan-16 16:38 36.058681 -114.960410 343 5066ft 180kts
20-Jan-16 16:39 36.077612 -115.007441 259 4969ft 168kts
20-Jan-16 16:40 36.073194 -115.064387 274 3606ft 163kts
20-Jan-16 16:41 36.073646 -115.116769 270 2386ft 150kts
20-Jan-16 16:42 36.074120 -115.149026 291 2192ft 39kts
20-Jan-16 16:43 36.077206 -115.150865 14 2192ft 10kts
20-Jan-16 16:44 36.077970 -115.149477 91 2192ft 12kts
20-Jan-16 16:45 36.078841 -115.146295 40 2192ft 7kts
20-Jan-16 16:46 36.079601 -115.146120 355 2192ft 1kts
20-Jan-16 16:47 36.079689 -115.146131 353 2192ft 0kts
20-Jan-16 16:48 36.079689 -115.146131 353 2192ft 0kts
20-Jan-16 16:49 36.079689 -115.146131 353 2192ft 0kts
20-Jan-16 16:50 36.079689 -115.146131 353 2192ft 0kts
20-Jan-16 16:51 36.079689 -115.146131 353 2192ft 0kts

Navigation Log

Ident Type
Flight plan parsing failed, navigation log unavailable